createdAt,value
2023-02-24T00:01:51.465Z,95697.31
2023-02-24T00:04:21.628Z,95696.63
2023-02-24T00:06:49.596Z,95692.38
2023-02-24T00:09:19.527Z,95693.34
2023-02-24T00:11:49.955Z,95702.34
2023-02-24T00:14:18.831Z,95691.53
2023-02-24T00:16:47.221Z,95680.22
2023-02-24T00:19:17.188Z,95688.25
2023-02-24T00:21:47.077Z,95687.41
2023-02-24T00:24:15.718Z,95680.22
2023-02-24T00:26:43.301Z,95674.22
2023-02-24T00:29:13.327Z,95676.97
2023-02-24T00:31:43.094Z,95675.13
2023-02-24T00:34:12.509Z,95666.44
2023-02-24T00:36:40.555Z,95668.56
2023-02-24T00:39:10.995Z,95662.66
2023-02-24T00:41:40.876Z,95663.06
2023-02-24T00:44:11.032Z,95660.28
2023-02-24T00:46:40.184Z,95662.00
2023-02-24T00:49:12.614Z,95662.66
2023-02-24T00:51:42.276Z,95667.06
2023-02-24T00:54:14.775Z,95663.94
2023-02-24T00:56:43.362Z,95653.78
2023-02-24T00:59:12.991Z,95655.00
2023-02-24T01:01:41.251Z,95642.84
2023-02-24T01:04:11.844Z,95642.09
2023-02-24T01:06:41.381Z,95640.00
2023-02-24T01:09:11.992Z,95641.44
2023-02-24T01:11:58.741Z,95630.94
2023-02-24T01:14:29.111Z,95635.41
2023-02-24T01:16:57.342Z,95624.47
2023-02-24T01:19:30.366Z,95632.28
2023-02-24T01:21:58.061Z,95631.97
2023-02-24T01:24:25.856Z,95631.53
2023-02-24T01:26:54.746Z,95644.53
2023-02-24T01:29:23.109Z,95635.47
2023-02-24T01:31:51.815Z,95625.53
2023-02-24T01:34:19.873Z,95622.47
2023-02-24T01:36:47.749Z,95625.00
2023-02-24T01:39:15.294Z,95618.78
2023-02-24T01:41:45.742Z,95612.91
2023-02-24T01:44:46.556Z,95612.84
2023-02-24T01:47:17.111Z,95604.06
2023-02-24T01:49:48.022Z,95608.31
2023-02-24T01:52:18.638Z,95601.00
2023-02-24T01:54:51.955Z,95591.16
2023-02-24T01:57:21.879Z,95601.00
2023-02-24T01:59:52.672Z,95603.41
2023-02-24T02:02:24.424Z,95598.75
2023-02-24T02:04:57.108Z,95593.38
2023-02-24T02:07:27.574Z,95587.56
2023-02-24T02:09:55.788Z,95590.06
2023-02-24T02:12:24.761Z,95584.69
2023-02-24T02:14:55.429Z,95583.31
2023-02-24T02:17:30.317Z,95581.75
2023-02-24T02:20:19.981Z,95572.84
2023-02-24T02:23:03.224Z,95569.09
2023-02-24T02:25:41.502Z,95568.97
2023-02-24T02:28:42.371Z,95570.91
2023-02-24T02:31:29.718Z,95562.78
2023-02-24T02:34:29.241Z,95571.34
2023-02-24T02:37:01.769Z,95569.28
2023-02-24T02:39:40.742Z,95563.97
2023-02-24T02:42:18.560Z,95563.91
2023-02-24T02:44:55.901Z,95566.09
2023-02-24T02:47:29.314Z,95569.41
2023-02-24T02:50:02.333Z,95569.16
2023-02-24T02:52:34.630Z,95571.72
2023-02-24T02:55:07.165Z,95568.69
2023-02-24T02:57:37.675Z,95555.56
2023-02-24T03:00:13.214Z,95543.22
2023-02-24T03:02:44.980Z,95545.22
2023-02-24T03:05:17.427Z,95543.84
2023-02-24T03:07:51.433Z,95544.56
2023-02-24T03:10:22.993Z,95539.69
2023-02-24T03:12:54.391Z,95541.47
2023-02-24T03:15:24.402Z,95537.69
2023-02-24T03:17:56.655Z,95538.94
2023-02-24T03:20:32.671Z,95537.84
2023-02-24T03:23:06.080Z,95546.13
2023-02-24T03:25:44.417Z,95563.78
2023-02-24T03:28:17.339Z,95560.38
2023-02-24T03:30:50.385Z,95567.63
2023-02-24T03:33:24.156Z,95570.00
2023-02-24T03:35:53.060Z,95552.50
2023-02-24T03:38:24.440Z,95551.34
2023-02-24T03:40:53.293Z,95548.94
2023-02-24T03:43:26.326Z,95537.66
2023-02-24T03:45:54.250Z,95538.81
2023-02-24T03:48:24.558Z,95532.41
2023-02-24T03:50:53.921Z,95520.50
2023-02-24T03:53:32.033Z,95516.50
2023-02-24T03:56:10.835Z,95525.19
2023-02-24T03:58:48.846Z,95527.97
2023-02-24T04:01:25.362Z,95528.09
2023-02-24T04:04:02.467Z,95540.66
2023-02-24T04:06:38.324Z,95551.56
2023-02-24T04:09:13.420Z,95553.16
2023-02-24T04:11:46.028Z,95559.94
2023-02-24T04:14:19.367Z,95543.88
2023-02-24T04:17:00.898Z,95549.16
2023-02-24T04:19:30.882Z,95549.84
2023-02-24T04:22:01.430Z,95547.88
2023-02-24T04:24:33.255Z,95538.00
2023-02-24T04:27:04.519Z,95537.31
2023-02-24T04:29:36.693Z,95524.69
2023-02-24T04:32:08.343Z,95521.94
2023-02-24T04:34:36.002Z,95528.09
2023-02-24T04:37:04.953Z,95551.50
2023-02-24T04:39:33.526Z,95551.25
2023-02-24T04:42:01.587Z,95555.16
2023-02-24T04:44:29.224Z,95552.38
2023-02-24T04:46:57.074Z,95540.38
2023-02-24T04:49:24.541Z,95528.22
2023-02-24T04:51:52.037Z,95526.69
2023-02-24T04:54:24.218Z,95532.13
2023-02-24T04:56:52.735Z,95526.66
2023-02-24T04:59:21.712Z,95526.97
2023-02-24T05:01:51.597Z,95520.09
2023-02-24T05:04:19.291Z,95520.38
2023-02-24T05:06:47.363Z,95506.25
2023-02-24T05:09:18.120Z,95500.34
2023-02-24T05:11:49.189Z,95494.25
2023-02-24T05:14:20.733Z,95492.72
2023-02-24T05:16:49.887Z,95486.19
2023-02-24T05:19:37.229Z,95483.38
2023-02-24T05:22:07.044Z,95465.72
2023-02-24T05:24:34.933Z,95451.97
2023-02-24T05:27:04.085Z,95445.38
2023-02-24T05:29:34.244Z,95445.84
2023-02-24T05:32:02.966Z,95439.31
2023-02-24T05:34:32.572Z,95441.09
2023-02-24T05:37:04.459Z,95442.91
2023-02-24T05:39:32.388Z,95450.47
2023-02-24T05:42:05.987Z,95450.44
2023-02-24T05:44:35.516Z,95452.09
2023-02-24T05:47:05.228Z,95452.84
2023-02-24T05:49:34.855Z,95454.22
2023-02-24T05:52:07.355Z,95440.59
2023-02-24T05:54:37.949Z,95437.38
2023-02-24T05:57:08.851Z,95435.44
2023-02-24T05:59:37.860Z,95431.38
2023-02-24T06:02:09.090Z,95422.06
2023-02-24T06:04:40.976Z,95414.78
2023-02-24T06:07:14.396Z,95432.59
2023-02-24T06:09:44.851Z,95446.84
2023-02-24T06:12:15.280Z,95446.69
2023-02-24T06:14:44.954Z,95445.00
2023-02-24T06:17:12.478Z,95445.66
2023-02-24T06:19:41.178Z,95447.94
2023-02-24T06:22:11.710Z,95449.66
2023-02-24T06:24:42.661Z,95455.09
2023-02-24T06:27:10.608Z,95454.75
2023-02-24T06:29:38.895Z,95442.88
2023-02-24T06:32:09.591Z,95437.59
2023-02-24T06:34:38.969Z,95447.28
2023-02-24T06:37:08.077Z,95443.09
2023-02-24T06:39:36.879Z,95455.25
2023-02-24T06:42:05.885Z,95459.72
2023-02-24T06:44:34.040Z,95458.13
2023-02-24T06:47:02.269Z,95455.34
2023-02-24T06:49:31.483Z,95456.66
2023-02-24T06:51:59.990Z,95448.34
2023-02-24T06:54:30.385Z,95441.22
2023-02-24T06:56:59.722Z,95437.47
2023-02-24T06:59:28.614Z,95436.63
2023-02-24T07:01:56.802Z,95437.94
2023-02-24T07:04:28.289Z,95434.31
2023-02-24T07:07:02.834Z,95437.97
2023-02-24T07:09:31.909Z,95436.00
2023-02-24T07:12:02.516Z,95429.69
2023-02-24T07:14:30.939Z,95427.31
2023-02-24T07:16:59.452Z,95418.28
2023-02-24T07:19:30.002Z,95419.09
2023-02-24T07:22:00.724Z,95421.69
2023-02-24T07:24:35.743Z,95422.91
2023-02-24T07:27:05.829Z,95411.38
2023-02-24T07:29:35.585Z,95415.38
2023-02-24T07:32:05.524Z,95408.75
2023-02-24T07:34:34.826Z,95401.25
2023-02-24T07:37:07.815Z,95398.84
2023-02-24T07:39:36.717Z,95397.97
2023-02-24T07:42:04.387Z,95391.66
2023-02-24T07:44:32.993Z,95384.25
2023-02-24T07:47:00.672Z,95376.97
2023-02-24T07:49:30.234Z,95393.22
2023-02-24T07:51:58.514Z,95399.97
2023-02-24T07:54:29.957Z,95399.06
2023-02-24T07:56:59.498Z,95403.91
2023-02-24T07:59:29.149Z,95399.06
2023-02-24T08:01:57.022Z,95396.19
2023-02-24T08:04:27.648Z,95390.00
2023-02-24T08:07:02.368Z,95392.19
2023-02-24T08:10:08.249Z,95383.81
2023-02-24T08:12:36.258Z,95377.38
2023-02-24T08:15:16.917Z,95376.06
2023-02-24T08:17:47.176Z,95373.41
2023-02-24T08:20:24.948Z,95372.56
2023-02-24T08:22:54.343Z,95366.16
2023-02-24T08:25:25.374Z,95357.13
2023-02-24T08:28:07.418Z,95359.88
2023-02-24T08:30:39.598Z,95363.91
2023-02-24T08:33:09.438Z,95348.69
2023-02-24T08:35:39.384Z,95341.78
2023-02-24T08:38:09.869Z,95345.88
2023-02-24T08:40:50.135Z,95342.44
2023-02-24T08:43:31.079Z,95349.09
2023-02-24T08:46:00.861Z,95347.22
2023-02-24T08:48:37.065Z,95347.59
2023-02-24T08:51:09.323Z,95342.66
2023-02-24T08:53:40.416Z,95340.00
2023-02-24T08:56:12.233Z,95334.91
2023-02-24T08:58:46.821Z,95327.75
2023-02-24T09:01:24.115Z,95328.72
2023-02-24T09:03:54.876Z,95324.31
2023-02-24T09:06:26.199Z,95326.38
2023-02-24T09:09:17.016Z,95327.25
2023-02-24T09:11:47.053Z,95337.13
2023-02-24T09:14:26.582Z,95332.88
2023-02-24T09:17:06.270Z,95331.59
2023-02-24T09:20:01.323Z,95323.84
2023-02-24T09:22:33.322Z,95308.47
2023-02-24T09:25:18.825Z,95315.78
2023-02-24T09:27:52.174Z,95316.41
2023-02-24T09:30:36.595Z,95316.22
2023-02-24T09:33:18.870Z,95317.53
2023-02-24T09:35:52.419Z,95309.84
2023-02-24T09:38:36.768Z,95302.06
2023-02-24T09:41:18.531Z,95303.06
2023-02-24T09:43:47.997Z,95297.03
2023-02-24T09:46:15.776Z,95305.13
2023-02-24T09:48:51.334Z,95301.78
2023-02-24T09:51:29.112Z,95298.75
2023-02-24T09:54:01.877Z,95295.47
2023-02-24T09:56:37.174Z,95294.59
2023-02-24T09:59:14.626Z,95295.94
2023-02-24T10:01:48.301Z,95288.44
2023-02-24T10:04:29.752Z,95284.16
2023-02-24T10:07:03.973Z,95273.50
2023-02-24T10:09:35.326Z,95274.38
2023-02-24T10:12:07.286Z,95269.69
2023-02-24T10:14:44.513Z,95258.13
2023-02-24T10:17:30.721Z,95261.69
2023-02-24T10:20:13.601Z,95253.22
2023-02-24T10:22:51.321Z,95247.72
2023-02-24T10:25:26.353Z,95245.22
2023-02-24T10:28:04.428Z,95253.25
2023-02-24T10:31:01.488Z,95253.16
2023-02-24T10:33:38.696Z,95236.66
2023-02-24T10:36:09.104Z,95240.44
2023-02-24T10:38:37.809Z,95245.25
2023-02-24T10:41:07.023Z,95231.94
2023-02-24T10:43:45.325Z,95232.78
2023-02-24T10:46:38.589Z,95239.56
2023-02-24T10:49:16.358Z,95223.34
2023-02-24T10:51:50.012Z,95219.28
2023-02-24T10:54:34.092Z,95217.19
2023-02-24T10:57:15.591Z,95210.78
2023-02-24T10:59:58.519Z,95210.75
2023-02-24T11:02:32.780Z,95205.50
2023-02-24T11:05:24.947Z,95201.63
2023-02-24T11:08:07.278Z,95191.44
2023-02-24T11:10:52.868Z,95179.16
2023-02-24T11:13:38.963Z,95177.25
2023-02-24T11:16:26.977Z,95173.78
2023-02-24T11:18:57.833Z,95161.72
2023-02-24T11:21:27.722Z,95165.59
2023-02-24T11:23:59.446Z,95157.50
2023-02-24T11:26:35.161Z,95159.88
2023-02-24T11:29:17.395Z,95154.50
2023-02-24T11:31:59.850Z,95152.69
2023-02-24T11:34:35.571Z,95142.88
2023-02-24T11:37:15.682Z,95141.59
2023-02-24T11:39:54.165Z,95127.50
2023-02-24T11:42:27.613Z,95117.44
2023-02-24T11:45:00.799Z,95105.09
2023-02-24T11:47:33.507Z,95097.84
2023-02-24T11:50:18.528Z,95090.91
2023-02-24T11:52:49.378Z,95092.53
2023-02-24T11:55:35.994Z,95088.13
2023-02-24T11:58:13.795Z,95078.47
2023-02-24T12:00:49.416Z,95081.53
2023-02-24T12:03:23.973Z,95072.91
2023-02-24T12:05:56.854Z,95062.47
2023-02-24T12:08:30.449Z,95063.72
2023-02-24T12:11:04.442Z,95062.50
2023-02-24T12:13:39.652Z,95065.94
2023-02-24T12:16:14.632Z,95062.97
2023-02-24T12:18:46.761Z,95066.44
2023-02-24T12:21:22.847Z,95053.44
2023-02-24T12:23:53.545Z,95056.47
2023-02-24T12:26:24.924Z,95052.03
2023-02-24T12:29:16.089Z,95046.06
2023-02-24T12:31:55.250Z,95042.94
2023-02-24T12:34:36.004Z,95041.78
2023-02-24T12:37:35.742Z,95039.25
2023-02-24T12:40:16.815Z,95037.53
2023-02-24T12:42:51.956Z,95040.13
2023-02-24T12:45:26.118Z,95035.66
2023-02-24T12:48:05.319Z,95042.03
2023-02-24T12:50:46.258Z,95022.09
2023-02-24T12:53:21.819Z,95022.03
2023-02-24T12:55:56.382Z,95010.56
2023-02-24T12:58:27.545Z,95011.63
2023-02-24T13:01:03.734Z,95004.81
2023-02-24T13:04:15.263Z,94995.00
2023-02-24T13:06:53.310Z,94993.50
2023-02-24T13:09:29.242Z,94993.25
2023-02-24T13:12:04.865Z,94984.34
2023-02-24T13:14:35.801Z,94988.06
2023-02-24T13:17:17.426Z,94996.34
2023-02-24T13:19:45.669Z,94975.72
2023-02-24T13:22:26.847Z,94982.47
2023-02-24T13:25:02.754Z,94968.28
2023-02-24T13:27:32.953Z,94969.59
2023-02-24T13:30:03.774Z,94954.78
2023-02-24T13:32:34.140Z,94962.34
2023-02-24T13:35:04.914Z,94952.00
2023-02-24T13:37:35.708Z,94943.66
2023-02-24T13:40:26.429Z,94933.94
2023-02-24T13:43:00.177Z,94931.22
2023-02-24T13:45:29.056Z,94923.28
2023-02-24T13:48:20.121Z,94931.28
2023-02-24T13:51:06.054Z,94920.47
2023-02-24T13:53:48.445Z,94909.22
2023-02-24T13:56:30.512Z,94904.72
2023-02-24T13:59:15.415Z,94889.03
2023-02-24T14:01:50.395Z,94892.75
2023-02-24T14:04:21.772Z,94896.22
2023-02-24T14:06:53.638Z,94882.66
2023-02-24T14:09:25.651Z,94882.53
2023-02-24T14:12:00.140Z,94883.44
2023-02-24T14:14:28.167Z,94879.25
2023-02-24T14:16:55.667Z,94872.75
2023-02-24T14:19:26.396Z,94861.13
2023-02-24T14:21:56.199Z,94859.25
2023-02-24T14:24:24.965Z,94858.03
2023-02-24T14:26:56.247Z,94854.13
2023-02-24T14:29:26.540Z,94845.41
2023-02-24T14:31:56.061Z,94843.38
2023-02-24T14:34:26.130Z,94845.81
2023-02-24T14:36:57.194Z,94836.84
2023-02-24T14:39:26.848Z,94822.50
2023-02-24T14:42:13.449Z,94817.94
2023-02-24T14:44:46.252Z,94816.94
2023-02-24T14:47:15.341Z,94818.66
2023-02-24T14:49:52.648Z,94816.59
2023-02-24T14:52:27.975Z,94815.19
2023-02-24T14:55:00.141Z,94812.31
2023-02-24T14:57:32.709Z,94805.50
2023-02-24T15:00:10.613Z,94789.09
2023-02-24T15:02:42.877Z,94795.06
2023-02-24T15:05:12.366Z,94792.66
2023-02-24T15:07:41.587Z,94788.63
2023-02-24T15:10:21.071Z,94786.72
2023-02-24T15:12:52.809Z,94796.63
2023-02-24T15:15:23.202Z,94791.72
2023-02-24T15:17:55.563Z,94784.41
2023-02-24T15:20:28.644Z,94777.44
2023-02-24T15:22:56.877Z,94782.66
2023-02-24T15:25:40.696Z,94774.84
2023-02-24T15:28:25.449Z,94767.00
2023-02-24T15:31:00.928Z,94772.41
2023-02-24T15:33:34.620Z,94764.63
2023-02-24T15:36:06.471Z,94765.75
2023-02-24T15:38:36.550Z,94766.84
2023-02-24T15:41:06.120Z,94768.44
2023-02-24T15:43:37.984Z,94769.97
2023-02-24T15:46:16.208Z,94763.34
2023-02-24T15:48:45.463Z,94761.16
2023-02-24T15:51:22.029Z,94762.78
2023-02-24T15:53:49.707Z,94760.19
2023-02-24T15:56:17.797Z,94753.00
2023-02-24T15:58:46.610Z,94753.59
2023-02-24T16:01:14.895Z,94751.28
2023-02-24T16:03:43.072Z,94741.72
2023-02-24T16:06:18.913Z,94736.50
2023-02-24T16:08:47.679Z,94736.47
2023-02-24T16:11:18.152Z,94731.53
2023-02-24T16:13:53.597Z,94739.25
2023-02-24T16:16:23.072Z,94730.25
2023-02-24T16:18:50.887Z,94724.78
2023-02-24T16:21:18.539Z,94713.50
2023-02-24T16:23:46.094Z,94710.81
2023-02-24T16:26:17.531Z,94712.34
2023-02-24T16:28:49.325Z,94713.59
2023-02-24T16:31:17.258Z,94709.91
2023-02-24T16:33:54.567Z,94702.56
2023-02-24T16:36:24.087Z,94708.00
2023-02-24T16:38:51.880Z,94699.31
2023-02-24T16:41:19.739Z,94700.03
2023-02-24T16:43:48.641Z,94701.06
2023-02-24T16:46:18.984Z,94705.94
2023-02-24T16:48:48.596Z,94701.88
2023-02-24T16:51:18.488Z,94703.66
2023-02-24T16:53:46.046Z,94695.75
2023-02-24T16:56:15.089Z,94704.34
2023-02-24T16:58:42.845Z,94692.41
2023-02-24T17:01:19.190Z,94700.50
2023-02-24T17:03:48.405Z,94697.56
2023-02-24T17:06:16.184Z,94712.69
2023-02-24T17:08:45.922Z,94699.97
2023-02-24T17:11:14.738Z,94700.03
2023-02-24T17:13:42.488Z,94705.75
2023-02-24T17:16:10.238Z,94706.13
2023-02-24T17:18:39.060Z,94699.16
2023-02-24T17:21:06.686Z,94710.84
2023-02-24T17:23:34.184Z,94702.22
2023-02-24T17:26:03.428Z,94705.75
2023-02-24T17:28:32.251Z,94689.44
2023-02-24T17:30:59.748Z,94697.50
2023-02-24T17:33:27.332Z,94693.63
2023-02-24T17:35:56.161Z,94689.66
2023-02-24T17:38:24.929Z,94684.06
2023-02-24T17:40:52.874Z,94675.13
2023-02-24T17:43:20.426Z,94683.13
2023-02-24T17:45:48.936Z,94674.84
2023-02-24T17:48:16.844Z,94675.38
2023-02-24T17:50:45.630Z,94675.84
2023-02-24T17:53:14.491Z,94677.19
2023-02-24T17:55:59.948Z,94683.59
2023-02-24T17:58:29.379Z,94683.88
2023-02-24T18:00:56.926Z,94688.38
2023-02-24T18:03:24.725Z,94691.66
2023-02-24T18:05:58.801Z,94690.00
2023-02-24T18:08:27.889Z,94682.34
2023-02-24T18:10:55.328Z,94678.94
2023-02-24T18:13:22.815Z,94681.22
2023-02-24T18:15:50.277Z,94671.50
2023-02-24T18:18:17.839Z,94671.06
2023-02-24T18:20:45.764Z,94672.91
2023-02-24T18:23:13.612Z,94671.38
2023-02-24T18:25:42.547Z,94661.72
2023-02-24T18:28:10.023Z,94671.34
2023-02-24T18:30:39.789Z,94671.50
2023-02-24T18:33:07.604Z,94675.16
2023-02-24T18:35:37.079Z,94649.53
2023-02-24T18:38:05.880Z,94653.75
2023-02-24T18:40:33.362Z,94634.66
2023-02-24T18:43:02.182Z,94648.97
2023-02-24T18:45:29.631Z,94649.09
2023-02-24T18:47:57.093Z,94631.84
2023-02-24T18:50:25.064Z,94638.53
2023-02-24T18:52:52.836Z,94636.78
2023-02-24T18:55:22.052Z,94626.34
2023-02-24T18:57:49.515Z,94637.13
2023-02-24T19:00:19.385Z,94625.03
2023-02-24T19:02:47.284Z,94628.91
2023-02-24T19:05:14.821Z,94628.97
2023-02-24T19:07:42.834Z,94627.69
2023-02-24T19:10:11.590Z,94629.44
2023-02-24T19:12:39.112Z,94613.84
2023-02-24T19:15:07.766Z,94619.13
2023-02-24T19:17:36.684Z,94617.03
2023-02-24T19:20:04.508Z,94632.00
2023-02-24T19:22:31.985Z,94635.59
2023-02-24T19:24:59.548Z,94640.31
2023-02-24T19:27:28.463Z,94630.66
2023-02-24T19:29:56.002Z,94650.16
2023-02-24T19:32:23.626Z,94649.94
2023-02-24T19:34:52.616Z,94639.38
2023-02-24T19:37:20.090Z,94644.78
2023-02-24T19:39:47.594Z,94648.66
2023-02-24T19:42:15.048Z,94639.38
2023-02-24T19:44:42.579Z,94645.72
2023-02-24T19:47:10.064Z,94625.34
2023-02-24T19:49:37.687Z,94626.78
2023-02-24T19:52:06.499Z,94638.47
2023-02-24T19:54:34.068Z,94637.59
2023-02-24T19:57:01.995Z,94638.59
2023-02-24T19:59:29.550Z,94636.72
2023-02-24T20:01:57.047Z,94638.22
2023-02-24T20:04:25.196Z,94627.00
2023-02-24T20:06:52.719Z,94635.31
2023-02-24T20:09:22.309Z,94616.16
2023-02-24T20:11:51.275Z,94623.03
2023-02-24T20:14:20.135Z,94632.75
2023-02-24T20:16:48.302Z,94618.94
2023-02-24T20:19:17.490Z,94630.75
2023-02-24T20:21:45.121Z,94615.78
2023-02-24T20:24:14.642Z,94613.66
2023-02-24T20:26:46.815Z,94594.47
2023-02-24T20:29:14.863Z,94611.94
2023-02-24T20:31:42.876Z,94604.09
2023-02-24T20:34:11.046Z,94616.88
2023-02-24T20:36:38.568Z,94610.69
2023-02-24T20:39:07.443Z,94618.94
2023-02-24T20:41:35.144Z,94620.41
2023-02-24T20:44:03.992Z,94616.50
2023-02-24T20:46:33.027Z,94610.53
2023-02-24T20:49:02.344Z,94624.84
2023-02-24T20:51:31.109Z,94633.69
2023-02-24T20:53:59.632Z,94630.81
2023-02-24T20:56:28.090Z,94634.84
2023-02-24T20:59:00.448Z,94651.59
2023-02-24T21:01:30.509Z,94643.44
2023-02-24T21:03:58.826Z,94650.53
2023-02-24T21:06:27.015Z,94654.09
2023-02-24T21:08:54.691Z,94647.72
2023-02-24T21:11:22.910Z,94654.75
2023-02-24T21:13:51.833Z,94650.75
2023-02-24T21:16:21.154Z,94653.91
2023-02-24T21:18:52.944Z,94666.00
2023-02-24T21:21:21.179Z,94655.81
2023-02-24T21:23:50.212Z,94663.72
2023-02-24T21:26:18.369Z,94667.06
2023-02-24T21:28:46.260Z,94685.63
2023-02-24T21:31:15.673Z,94690.53
2023-02-24T21:33:43.582Z,94697.72
2023-02-24T21:36:15.724Z,94706.91
2023-02-24T21:38:43.266Z,94699.97
2023-02-24T21:41:14.590Z,94705.88
2023-02-24T21:43:42.179Z,94689.63
2023-02-24T21:46:10.013Z,94687.97
2023-02-24T21:48:38.726Z,94683.34
2023-02-24T21:51:09.431Z,94689.72
2023-02-24T21:53:40.949Z,94684.34
2023-02-24T21:56:16.124Z,94699.31
2023-02-24T21:58:45.501Z,94697.94
2023-02-24T22:01:14.744Z,94693.31
2023-02-24T22:03:42.426Z,94700.13
2023-02-24T22:06:10.814Z,94691.25
2023-02-24T22:08:43.246Z,94679.16
2023-02-24T22:11:12.103Z,94688.31
2023-02-24T22:13:39.762Z,94686.97
2023-02-24T22:16:08.148Z,94696.00
2023-02-24T22:18:35.801Z,94694.88
2023-02-24T22:21:06.937Z,94699.28
2023-02-24T22:23:34.423Z,94709.38
2023-02-24T22:26:05.652Z,94698.38
2023-02-24T22:28:34.725Z,94701.03
2023-02-24T22:31:03.087Z,94710.09
2023-02-24T22:33:30.959Z,94710.38
2023-02-24T22:36:02.641Z,94699.50
2023-02-24T22:38:31.804Z,94709.25
2023-02-24T22:41:00.002Z,94701.66
2023-02-24T22:43:30.342Z,94705.44
2023-02-24T22:45:59.018Z,94716.25
2023-02-24T22:48:26.743Z,94723.47
2023-02-24T22:50:56.424Z,94715.25
2023-02-24T22:53:24.934Z,94720.84
2023-02-24T22:55:52.809Z,94714.53
2023-02-24T22:58:22.255Z,94711.50
2023-02-24T23:00:52.631Z,94714.44
2023-02-24T23:03:23.050Z,94721.44
2023-02-24T23:05:56.585Z,94723.09
2023-02-24T23:08:24.557Z,94710.50
2023-02-24T23:10:53.220Z,94694.81
2023-02-24T23:13:20.904Z,94718.91
2023-02-24T23:15:48.794Z,94698.38
2023-02-24T23:18:17.747Z,94701.66
2023-02-24T23:20:46.512Z,94700.59
2023-02-24T23:23:14.015Z,94690.47
2023-02-24T23:25:42.049Z,94687.47
2023-02-24T23:28:09.625Z,94697.94
2023-02-24T23:30:41.918Z,94686.13
2023-02-24T23:33:10.983Z,94687.78
2023-02-24T23:35:40.702Z,94687.19
2023-02-24T23:38:08.557Z,94686.34
2023-02-24T23:40:49.532Z,94681.22
2023-02-24T23:43:17.779Z,94692.09
2023-02-24T23:45:45.443Z,94700.09
2023-02-24T23:48:15.611Z,94700.78
2023-02-24T23:50:45.840Z,94701.22
2023-02-24T23:53:13.383Z,94700.09
2023-02-24T23:55:42.034Z,94700.94
2023-02-24T23:58:09.568Z,94703.97
